createdAt,value
2019-05-30T00:00:32.529Z,5.00
2019-05-30T00:01:38.020Z,5.10
2019-05-30T00:02:46.534Z,5.10
2019-05-30T00:03:53.936Z,5.00
2019-05-30T00:05:00.306Z,5.00
2019-05-30T00:06:06.830Z,5.00
2019-05-30T00:07:11.987Z,4.90
2019-05-30T00:08:17.630Z,4.90
2019-05-30T00:09:23.454Z,4.90
2019-05-30T00:10:29.953Z,4.90
2019-05-30T00:11:35.786Z,5.00
2019-05-30T00:12:41.273Z,5.00
2019-05-30T00:13:46.770Z,5.00
2019-05-30T00:14:54.421Z,5.00
2019-05-30T00:16:00.821Z,5.00
2019-05-30T00:17:07.268Z,4.90
2019-05-30T00:18:12.481Z,4.90
2019-05-30T00:19:17.985Z,4.90
2019-05-30T00:20:23.494Z,4.90
2019-05-30T00:21:29.272Z,4.80
2019-05-30T00:22:34.189Z,4.80
2019-05-30T00:23:40.190Z,4.80
2019-05-30T00:24:45.656Z,4.80
2019-05-30T00:25:51.930Z,4.80
2019-05-30T00:26:58.268Z,4.80
2019-05-30T00:28:05.230Z,4.80
2019-05-30T00:29:10.884Z,4.80
2019-05-30T00:30:24.211Z,4.80
2019-05-30T00:31:23.958Z,4.70
2019-05-30T00:32:30.194Z,4.80
2019-05-30T00:33:35.336Z,4.80
2019-05-30T00:34:41.358Z,4.80
2019-05-30T00:35:46.399Z,4.80
2019-05-30T00:36:52.689Z,4.80
2019-05-30T00:37:57.727Z,4.80
2019-05-30T00:39:03.891Z,4.70
2019-05-30T00:40:10.316Z,4.60
2019-05-30T00:41:15.910Z,4.60
2019-05-30T00:42:21.409Z,4.60
2019-05-30T00:43:27.212Z,4.60
2019-05-30T00:44:32.849Z,4.60
2019-05-30T00:45:38.945Z,4.60
2019-05-30T00:46:44.540Z,4.60
2019-05-30T00:47:50.720Z,4.60
2019-05-30T00:48:56.328Z,4.50
2019-05-30T00:50:02.741Z,4.60
2019-05-30T00:51:08.497Z,4.60
2019-05-30T00:52:14.574Z,4.60
2019-05-30T00:53:20.549Z,4.60
2019-05-30T00:54:26.823Z,4.60
2019-05-30T00:55:31.822Z,4.60
2019-05-30T00:56:38.030Z,4.50
2019-05-30T00:57:43.403Z,4.50
2019-05-30T00:58:49.597Z,4.50
2019-05-30T00:59:56.547Z,4.50
2019-05-30T01:01:03.109Z,4.50
2019-05-30T01:02:08.915Z,4.50
2019-05-30T01:03:14.569Z,4.40
2019-05-30T01:04:20.284Z,4.40
2019-05-30T01:05:27.271Z,4.40
2019-05-30T01:06:32.630Z,4.40
2019-05-30T01:07:39.042Z,4.40
2019-05-30T01:08:44.564Z,4.40
2019-05-30T01:09:50.385Z,4.40
2019-05-30T01:10:55.392Z,4.30
2019-05-30T01:12:01.075Z,4.40
2019-05-30T01:13:07.281Z,4.40
2019-05-30T01:14:13.718Z,4.30
2019-05-30T01:15:19.529Z,4.40
2019-05-30T01:16:25.552Z,4.30
2019-05-30T01:17:31.282Z,4.30
2019-05-30T01:18:36.943Z,4.20
2019-05-30T01:19:42.536Z,4.20
2019-05-30T01:20:48.306Z,4.20
2019-05-30T01:21:53.663Z,4.20
2019-05-30T01:22:59.245Z,4.20
2019-05-30T01:24:05.634Z,4.20
2019-05-30T01:25:12.066Z,4.20
2019-05-30T01:26:17.714Z,4.20
2019-05-30T01:27:23.801Z,4.20
2019-05-30T01:28:29.594Z,4.20
2019-05-30T01:29:35.078Z,4.20
2019-05-30T01:30:40.173Z,4.20
2019-05-30T01:31:46.177Z,4.20
2019-05-30T01:32:51.639Z,4.30
2019-05-30T01:33:57.912Z,4.20
2019-05-30T01:35:03.933Z,4.20
2019-05-30T01:36:10.099Z,4.20
2019-05-30T01:37:15.141Z,4.20
2019-05-30T01:38:20.680Z,4.20
2019-05-30T01:39:25.513Z,4.20
2019-05-30T01:40:31.742Z,4.10
2019-05-30T01:41:37.540Z,4.10
2019-05-30T01:42:43.691Z,4.10
2019-05-30T01:43:48.807Z,4.10
2019-05-30T01:44:54.967Z,4.10
2019-05-30T01:46:00.205Z,4.00
2019-05-30T01:47:06.385Z,4.00
2019-05-30T01:48:11.807Z,4.00
2019-05-30T01:49:17.794Z,4.00
2019-05-30T01:50:23.584Z,4.00
2019-05-30T01:51:29.380Z,3.90
2019-05-30T01:52:34.539Z,4.00
2019-05-30T01:53:39.933Z,4.00
2019-05-30T01:54:45.574Z,3.90
2019-05-30T01:55:51.846Z,3.90
2019-05-30T01:56:57.062Z,3.90
2019-05-30T01:58:03.220Z,3.90
2019-05-30T01:59:08.927Z,3.90
2019-05-30T02:00:21.312Z,3.90
2019-05-30T02:01:25.412Z,3.90
2019-05-30T02:02:31.103Z,3.80
2019-05-30T02:03:36.188Z,3.80
2019-05-30T02:04:41.694Z,3.80
2019-05-30T02:05:47.358Z,3.80
2019-05-30T02:06:53.518Z,3.90
2019-05-30T02:07:59.078Z,3.90
2019-05-30T02:09:07.426Z,3.80
2019-05-30T02:10:13.047Z,3.80
2019-05-30T02:11:19.329Z,3.80
2019-05-30T02:12:24.769Z,3.80
2019-05-30T02:13:34.191Z,3.80
2019-05-30T02:14:39.754Z,3.80
2019-05-30T02:15:45.401Z,3.80
2019-05-30T02:16:51.164Z,3.80
2019-05-30T02:17:57.386Z,3.80
2019-05-30T02:19:03.626Z,3.80
2019-05-30T02:20:10.610Z,3.80
2019-05-30T02:21:15.696Z,3.70
2019-05-30T02:22:21.741Z,3.80
2019-05-30T02:23:26.832Z,3.70
2019-05-30T02:24:32.622Z,3.70
2019-05-30T02:25:37.514Z,3.70
2019-05-30T02:26:43.395Z,3.70
2019-05-30T02:27:49.282Z,3.70
2019-05-30T02:28:55.191Z,3.70
2019-05-30T02:30:00.631Z,3.70
2019-05-30T02:31:07.097Z,3.70
2019-05-30T02:32:13.326Z,3.70
2019-05-30T02:33:19.475Z,3.70
2019-05-30T02:34:24.612Z,3.70
2019-05-30T02:35:30.385Z,3.60
2019-05-30T02:36:35.324Z,3.60
2019-05-30T02:37:41.642Z,3.60
2019-05-30T02:38:46.848Z,3.60
2019-05-30T02:39:52.384Z,3.60
2019-05-30T02:40:57.296Z,3.60
2019-05-30T02:42:03.405Z,3.60
2019-05-30T02:43:10.444Z,3.60
2019-05-30T02:44:16.314Z,3.60
2019-05-30T02:45:21.439Z,3.60
2019-05-30T02:46:27.864Z,3.70
2019-05-30T02:47:33.526Z,3.70
2019-05-30T02:48:57.505Z,3.70
2019-05-30T02:49:46.500Z,3.70
2019-05-30T02:50:52.028Z,3.70
2019-05-30T02:51:57.761Z,3.70
2019-05-30T02:53:03.723Z,3.70
2019-05-30T02:54:11.544Z,3.80
2019-05-30T02:55:17.699Z,3.70
2019-05-30T02:56:23.316Z,3.70
2019-05-30T02:57:29.561Z,3.70
2019-05-30T02:58:35.450Z,3.70
2019-05-30T02:59:41.603Z,3.70
2019-05-30T03:00:47.242Z,3.70
2019-05-30T03:02:01.399Z,3.70
2019-05-30T03:03:01.925Z,3.70
2019-05-30T03:04:08.751Z,3.70
2019-05-30T03:05:15.392Z,3.80
2019-05-30T03:06:21.857Z,3.80
2019-05-30T03:07:27.091Z,3.90
2019-05-30T03:08:32.771Z,3.90
2019-05-30T03:09:38.460Z,3.90
2019-05-30T03:10:44.925Z,3.90
2019-05-30T03:11:50.143Z,3.90
2019-05-30T03:12:56.382Z,3.90
2019-05-30T03:14:02.124Z,3.90
2019-05-30T03:15:12.959Z,3.90
2019-05-30T03:16:17.750Z,3.90
2019-05-30T03:17:24.008Z,3.90
2019-05-30T03:18:29.816Z,4.00
2019-05-30T03:19:36.068Z,4.00
2019-05-30T03:20:41.808Z,4.00
2019-05-30T03:21:48.058Z,4.10
2019-05-30T03:22:53.077Z,4.10
2019-05-30T03:23:59.486Z,4.20
2019-05-30T03:25:07.461Z,4.20
2019-05-30T03:26:15.678Z,4.20
2019-05-30T03:27:20.879Z,4.30
2019-05-30T03:28:27.247Z,4.30
2019-05-30T03:29:33.018Z,4.30
2019-05-30T03:30:39.257Z,4.30
2019-05-30T03:31:46.322Z,4.30
2019-05-30T03:33:06.776Z,4.40
2019-05-30T03:33:59.169Z,4.40
2019-05-30T03:35:11.060Z,4.40
2019-05-30T03:36:23.943Z,4.40
2019-05-30T03:37:28.635Z,4.40
2019-05-30T03:38:30.315Z,4.40
2019-05-30T03:39:36.059Z,4.40
2019-05-30T03:40:41.594Z,4.40
2019-05-30T03:41:47.476Z,4.40
2019-05-30T03:42:52.463Z,4.40
2019-05-30T03:43:58.934Z,4.50
2019-05-30T03:45:06.268Z,4.50
2019-05-30T03:46:16.569Z,4.50
2019-05-30T03:47:24.914Z,4.50
2019-05-30T03:48:33.115Z,4.60
2019-05-30T03:49:40.983Z,4.60
2019-05-30T03:50:51.402Z,4.60
2019-05-30T03:51:59.435Z,4.60
2019-05-30T03:53:07.382Z,4.70
2019-05-30T03:54:15.307Z,4.70
2019-05-30T03:55:22.024Z,4.70
2019-05-30T03:56:38.937Z,4.70
2019-05-30T03:57:50.474Z,4.80
2019-05-30T03:59:10.155Z,4.80
2019-05-30T04:00:27.950Z,4.80
2019-05-30T04:01:50.831Z,4.90
2019-05-30T04:03:02.759Z,4.90
2019-05-30T04:04:19.247Z,4.90
2019-05-30T04:05:32.118Z,5.00
2019-05-30T04:06:40.458Z,5.10
2019-05-30T04:07:51.190Z,5.10
2019-05-30T04:09:00.874Z,5.20
2019-05-30T04:10:11.260Z,5.20
2019-05-30T04:11:20.120Z,5.30
2019-05-30T04:12:35.364Z,5.40
2019-05-30T04:13:52.997Z,5.40
2019-05-30T04:15:05.335Z,5.40
2019-05-30T04:16:11.105Z,5.50
2019-05-30T04:17:19.743Z,5.50
2019-05-30T04:18:25.185Z,5.60
2019-05-30T04:19:31.433Z,5.60
2019-05-30T04:20:37.229Z,5.70
2019-05-30T04:21:44.018Z,5.70
2019-05-30T04:22:50.032Z,5.80
2019-05-30T04:23:56.549Z,5.80
2019-05-30T04:25:02.451Z,5.90
2019-05-30T04:26:09.691Z,5.90
2019-05-30T04:27:18.480Z,6.00
2019-05-30T04:28:24.505Z,6.00
2019-05-30T04:29:30.076Z,6.10
2019-05-30T04:30:36.437Z,6.20
2019-05-30T04:31:42.253Z,6.30
2019-05-30T04:32:48.621Z,6.30
2019-05-30T04:33:54.535Z,6.40
2019-05-30T04:35:00.844Z,6.40
2019-05-30T04:36:08.262Z,6.50
2019-05-30T04:37:14.920Z,6.60
2019-05-30T04:38:21.688Z,6.60
2019-05-30T04:39:27.738Z,6.70
2019-05-30T04:40:33.537Z,6.80
2019-05-30T04:41:39.976Z,6.90
2019-05-30T04:42:44.945Z,6.90
2019-05-30T04:43:51.196Z,7.00
2019-05-30T04:44:57.095Z,7.10
2019-05-30T04:46:03.141Z,7.10
2019-05-30T04:47:10.017Z,7.20
2019-05-30T04:48:18.352Z,7.20
2019-05-30T04:49:23.904Z,7.30
2019-05-30T04:50:30.239Z,7.30
2019-05-30T04:51:35.755Z,7.40
2019-05-30T04:52:41.932Z,7.50
2019-05-30T04:53:47.466Z,7.50
2019-05-30T04:54:54.027Z,7.50
2019-05-30T04:56:00.199Z,7.60
2019-05-30T04:57:06.806Z,7.70
2019-05-30T04:58:13.418Z,7.70
2019-05-30T04:59:21.940Z,7.80
2019-05-30T05:00:27.474Z,7.80
2019-05-30T05:01:33.874Z,7.90
2019-05-30T05:02:39.634Z,8.00
2019-05-30T05:03:46.947Z,8.10
2019-05-30T05:04:53.170Z,8.10
2019-05-30T05:05:59.845Z,8.10
2019-05-30T05:07:05.563Z,8.20
2019-05-30T05:08:13.691Z,8.20
2019-05-30T05:09:20.262Z,8.30
2019-05-30T05:10:27.410Z,8.40
2019-05-30T05:11:32.885Z,8.50
2019-05-30T05:12:38.702Z,8.50
2019-05-30T05:13:44.329Z,8.60
2019-05-30T05:14:50.586Z,8.70
2019-05-30T05:15:56.399Z,8.70
2019-05-30T05:17:02.918Z,8.70
2019-05-30T05:18:08.488Z,8.70
2019-05-30T05:19:17.061Z,8.80
2019-05-30T05:20:23.533Z,8.90
2019-05-30T05:21:30.528Z,9.00
2019-05-30T05:22:36.684Z,9.00
2019-05-30T05:23:43.526Z,9.00
2019-05-30T05:24:49.720Z,9.10
2019-05-30T05:26:01.095Z,9.10
2019-05-30T05:27:04.447Z,9.20
2019-05-30T05:28:11.080Z,9.20
2019-05-30T05:29:17.914Z,9.30
2019-05-30T05:30:24.644Z,9.30
2019-05-30T05:31:30.128Z,9.40
2019-05-30T05:32:36.925Z,9.40
2019-05-30T05:33:55.645Z,9.50
2019-05-30T05:34:52.135Z,9.50
2019-05-30T05:35:58.776Z,9.50
2019-05-30T05:37:04.644Z,9.60
2019-05-30T05:38:10.202Z,9.60
2019-05-30T05:39:16.492Z,9.60
2019-05-30T05:40:22.434Z,9.80
2019-05-30T05:41:28.664Z,9.70
2019-05-30T05:42:33.975Z,9.70
2019-05-30T05:43:39.793Z,9.80
2019-05-30T05:44:45.246Z,9.80
2019-05-30T05:45:51.036Z,9.90
2019-05-30T05:46:56.645Z,9.90
2019-05-30T05:48:03.046Z,9.90
2019-05-30T05:49:08.695Z,10.00
2019-05-30T05:50:14.730Z,10.00
2019-05-30T05:51:20.754Z,10.10
2019-05-30T05:52:26.978Z,10.10
2019-05-30T05:53:32.840Z,10.20
2019-05-30T05:54:38.578Z,10.20
2019-05-30T05:55:44.392Z,10.30
2019-05-30T05:56:50.876Z,10.30
2019-05-30T05:57:56.341Z,10.40
2019-05-30T05:59:02.600Z,10.40
2019-05-30T06:00:09.544Z,10.40
2019-05-30T06:01:17.252Z,10.40
2019-05-30T06:02:23.475Z,10.50
2019-05-30T06:03:30.359Z,10.50
2019-05-30T06:04:36.165Z,10.50
2019-05-30T06:05:52.551Z,10.60
2019-05-30T06:06:49.721Z,10.60
2019-05-30T06:07:55.915Z,10.60
2019-05-30T06:09:01.488Z,10.70
2019-05-30T06:10:08.278Z,10.70
2019-05-30T06:11:14.093Z,10.80
2019-05-30T06:12:20.269Z,10.90
2019-05-30T06:13:26.214Z,10.80
2019-05-30T06:14:32.689Z,10.90
2019-05-30T06:15:38.086Z,10.90
2019-05-30T06:16:44.442Z,10.90
2019-05-30T06:17:50.163Z,10.90
2019-05-30T06:18:56.407Z,11.00
2019-05-30T06:20:02.218Z,11.00
2019-05-30T06:21:08.866Z,11.00
2019-05-30T06:22:14.447Z,11.00
2019-05-30T06:23:21.573Z,11.00
2019-05-30T06:24:27.835Z,11.10
2019-05-30T06:25:34.554Z,11.10
2019-05-30T06:26:40.323Z,11.10
2019-05-30T06:27:46.735Z,11.00
2019-05-30T06:28:52.177Z,11.00
2019-05-30T06:29:58.152Z,11.00
2019-05-30T06:31:04.133Z,11.10
2019-05-30T06:32:10.514Z,11.20
2019-05-30T06:33:16.410Z,11.30
2019-05-30T06:34:32.337Z,11.30
2019-05-30T06:35:29.476Z,11.40
2019-05-30T06:36:35.914Z,11.40
2019-05-30T06:37:41.657Z,11.50
2019-05-30T06:38:47.679Z,11.50
2019-05-30T06:39:53.359Z,11.60
2019-05-30T06:40:59.659Z,11.70
2019-05-30T06:42:05.395Z,11.70
2019-05-30T06:43:11.944Z,11.70
2019-05-30T06:44:17.581Z,11.70
2019-05-30T06:45:25.181Z,11.80
2019-05-30T06:46:31.415Z,11.90
2019-05-30T06:47:37.823Z,11.90
2019-05-30T06:48:43.506Z,11.90
2019-05-30T06:49:49.747Z,11.90
2019-05-30T06:50:55.399Z,11.90
2019-05-30T06:52:01.934Z,11.90
2019-05-30T06:53:07.513Z,12.00
2019-05-30T06:54:13.572Z,12.10
2019-05-30T06:55:19.344Z,12.10
2019-05-30T06:56:25.551Z,12.20
2019-05-30T06:57:31.454Z,12.20
2019-05-30T06:58:47.921Z,12.20
2019-05-30T06:59:45.282Z,12.30
2019-05-30T07:00:51.934Z,12.30
2019-05-30T07:01:57.012Z,12.40
2019-05-30T07:03:03.147Z,12.40
2019-05-30T07:04:09.234Z,12.40
2019-05-30T07:05:16.571Z,12.40
2019-05-30T07:06:23.207Z,12.30
2019-05-30T07:07:31.427Z,12.30
2019-05-30T07:08:37.174Z,12.30
2019-05-30T07:09:43.648Z,12.40
2019-05-30T07:10:49.214Z,12.40
2019-05-30T07:11:55.481Z,12.30
2019-05-30T07:13:02.160Z,12.20
2019-05-30T07:14:08.688Z,12.10
2019-05-30T07:15:14.555Z,12.00
2019-05-30T07:16:21.029Z,12.00
2019-05-30T07:17:27.420Z,11.90
2019-05-30T07:18:36.507Z,12.00
2019-05-30T07:19:41.233Z,12.00
2019-05-30T07:20:47.706Z,12.00
2019-05-30T07:21:53.234Z,12.00
2019-05-30T07:22:59.845Z,11.90
2019-05-30T07:24:05.966Z,11.90
2019-05-30T07:25:12.313Z,12.00
2019-05-30T07:26:17.478Z,12.10
2019-05-30T07:27:23.834Z,12.20
2019-05-30T07:28:29.922Z,12.20
2019-05-30T07:29:36.182Z,12.20
2019-05-30T07:30:41.574Z,12.20
2019-05-30T07:31:48.045Z,12.20
2019-05-30T07:32:53.513Z,12.40
2019-05-30T07:33:59.657Z,12.40
2019-05-30T07:35:07.183Z,12.40
2019-05-30T07:36:13.693Z,12.30
2019-05-30T07:37:19.507Z,12.40
2019-05-30T07:38:26.360Z,12.40
2019-05-30T07:39:35.031Z,12.40
2019-05-30T07:40:40.025Z,12.40
2019-05-30T07:41:45.131Z,12.30
2019-05-30T07:42:50.829Z,12.40
2019-05-30T07:43:56.060Z,12.40
2019-05-30T07:45:02.925Z,12.40
2019-05-30T07:46:08.686Z,12.50
2019-05-30T07:47:14.925Z,12.60
2019-05-30T07:48:20.659Z,12.60
2019-05-30T07:49:26.572Z,12.60
2019-05-30T07:50:32.625Z,12.60
2019-05-30T07:51:39.059Z,12.60
2019-05-30T07:52:44.424Z,12.60
2019-05-30T07:53:50.598Z,12.60
2019-05-30T07:54:56.267Z,12.60
2019-05-30T07:56:02.691Z,12.70
2019-05-30T07:57:08.324Z,12.80
2019-05-30T07:58:14.087Z,12.80
2019-05-30T07:59:19.645Z,12.90
2019-05-30T08:00:27.294Z,13.00
2019-05-30T08:01:34.589Z,13.20
2019-05-30T08:02:40.542Z,13.30
2019-05-30T08:03:46.332Z,13.40
2019-05-30T08:04:52.481Z,13.50
2019-05-30T08:05:58.250Z,13.50
2019-05-30T08:07:04.878Z,13.50
2019-05-30T08:08:10.607Z,13.40
2019-05-30T08:09:17.065Z,13.40
2019-05-30T08:10:22.746Z,13.40
2019-05-30T08:11:28.751Z,13.40
2019-05-30T08:12:36.139Z,13.50
2019-05-30T08:13:43.619Z,13.50
2019-05-30T08:14:48.709Z,13.40
2019-05-30T08:15:55.059Z,13.50
2019-05-30T08:17:00.794Z,13.50
2019-05-30T08:18:07.086Z,13.50
2019-05-30T08:19:12.851Z,13.50
2019-05-30T08:20:19.272Z,13.50
2019-05-30T08:21:25.088Z,13.50
2019-05-30T08:22:31.898Z,13.60
2019-05-30T08:23:38.383Z,13.50
2019-05-30T08:24:44.488Z,13.50
2019-05-30T08:25:49.685Z,13.60
2019-05-30T08:26:55.639Z,13.60
2019-05-30T08:28:01.443Z,13.60
2019-05-30T08:29:07.904Z,13.70
2019-05-30T08:30:14.413Z,13.80
2019-05-30T08:31:20.276Z,13.80
2019-05-30T08:32:25.950Z,13.80
2019-05-30T08:33:31.590Z,13.80
2019-05-30T08:34:36.938Z,13.70
2019-05-30T08:35:49.596Z,13.80
2019-05-30T08:36:50.675Z,13.80
2019-05-30T08:37:57.095Z,13.90
2019-05-30T08:39:02.764Z,14.00
2019-05-30T08:40:09.499Z,14.20
2019-05-30T08:41:15.222Z,14.30
2019-05-30T08:42:20.799Z,14.30
2019-05-30T08:43:26.443Z,14.50
2019-05-30T08:44:33.754Z,14.60
2019-05-30T08:45:39.985Z,14.70
2019-05-30T08:46:45.914Z,14.80
2019-05-30T08:47:51.488Z,14.80
2019-05-30T08:48:57.661Z,14.70
2019-05-30T08:50:03.442Z,14.80
2019-05-30T08:51:09.774Z,14.80
2019-05-30T08:52:15.623Z,14.70
2019-05-30T08:53:21.854Z,14.70
2019-05-30T08:54:27.963Z,14.70
2019-05-30T08:55:34.398Z,14.60
2019-05-30T08:56:40.714Z,14.60
2019-05-30T08:57:51.384Z,14.60
2019-05-30T08:58:57.594Z,14.70
2019-05-30T09:00:03.971Z,14.80
2019-05-30T09:01:10.448Z,14.90
2019-05-30T09:02:16.832Z,15.00
2019-05-30T09:03:22.558Z,15.00
2019-05-30T09:04:29.296Z,15.20
2019-05-30T09:05:35.845Z,15.30
2019-05-30T09:06:42.226Z,15.50
2019-05-30T09:07:48.588Z,15.60
2019-05-30T09:08:54.656Z,15.60
2019-05-30T09:10:00.198Z,15.50
2019-05-30T09:11:06.610Z,15.50
2019-05-30T09:12:12.373Z,15.60
2019-05-30T09:13:18.544Z,15.60
2019-05-30T09:14:25.008Z,15.60
2019-05-30T09:15:32.463Z,15.60
2019-05-30T09:16:38.457Z,15.60
2019-05-30T09:17:46.781Z,15.60
2019-05-30T09:18:52.631Z,15.60
2019-05-30T09:19:59.009Z,15.70
2019-05-30T09:21:04.656Z,15.80
2019-05-30T09:22:11.240Z,15.90
2019-05-30T09:23:16.706Z,16.00
2019-05-30T09:24:22.784Z,16.10
2019-05-30T09:25:29.322Z,16.10
2019-05-30T09:26:35.662Z,16.10
2019-05-30T09:27:42.627Z,16.10
2019-05-30T09:28:48.901Z,16.10
2019-05-30T09:29:54.592Z,16.00
2019-05-30T09:31:02.042Z,16.00
2019-05-30T09:32:07.979Z,16.00
2019-05-30T09:33:14.090Z,15.90
2019-05-30T09:34:19.843Z,16.00
2019-05-30T09:35:25.948Z,16.10
2019-05-30T09:36:31.152Z,16.30
2019-05-30T09:37:38.704Z,16.40
2019-05-30T09:38:45.430Z,16.40
2019-05-30T09:39:51.122Z,16.40
2019-05-30T09:40:56.234Z,16.40
2019-05-30T09:42:02.586Z,16.50
2019-05-30T09:43:08.046Z,16.60
2019-05-30T09:44:13.878Z,16.60
2019-05-30T09:45:20.460Z,16.80
2019-05-30T09:46:26.631Z,16.90
2019-05-30T09:47:32.347Z,16.90
2019-05-30T09:48:40.146Z,16.90
2019-05-30T09:49:46.546Z,16.90
2019-05-30T09:50:52.999Z,16.90
2019-05-30T09:51:58.342Z,17.00
2019-05-30T09:53:04.559Z,17.10
2019-05-30T09:54:10.328Z,17.20
2019-05-30T09:55:18.108Z,17.20
2019-05-30T09:56:23.854Z,17.20
2019-05-30T09:57:29.751Z,17.10
2019-05-30T09:58:35.561Z,17.00
2019-05-30T09:59:43.560Z,17.00
2019-05-30T10:00:49.039Z,17.10
2019-05-30T10:01:56.553Z,17.20
2019-05-30T10:03:02.330Z,17.20
2019-05-30T10:04:08.068Z,17.20
2019-05-30T10:05:15.444Z,17.30
2019-05-30T10:06:29.556Z,17.50
2019-05-30T10:07:27.927Z,17.60
2019-05-30T10:08:33.730Z,17.60
2019-05-30T10:09:38.707Z,17.60
2019-05-30T10:10:45.674Z,17.70
2019-05-30T10:11:52.003Z,17.80
2019-05-30T10:12:58.727Z,17.80
2019-05-30T10:14:04.283Z,17.70
2019-05-30T10:15:10.613Z,17.80
2019-05-30T10:16:16.252Z,17.80
2019-05-30T10:17:24.933Z,17.80
2019-05-30T10:21:57.155Z,17.80
2019-05-30T10:23:03.803Z,17.90
2019-05-30T10:24:09.212Z,18.00
2019-05-30T10:25:15.940Z,18.10
2019-05-30T10:26:20.874Z,18.10
2019-05-30T10:27:27.362Z,18.20
2019-05-30T10:28:33.436Z,18.20
2019-05-30T10:29:39.831Z,18.30
2019-05-30T10:30:49.889Z,18.50
2019-05-30T10:31:53.193Z,18.80
2019-05-30T10:32:58.344Z,18.90
2019-05-30T10:34:04.658Z,18.90
2019-05-30T10:35:10.997Z,19.00
2019-05-30T10:36:19.884Z,19.70
2019-05-30T10:37:23.779Z,20.70
2019-05-30T10:38:29.328Z,21.20
2019-05-30T10:39:34.357Z,21.50
2019-05-30T10:40:40.379Z,21.80
2019-05-30T10:41:46.255Z,21.90
2019-05-30T10:42:55.029Z,22.20
2019-05-30T10:44:00.274Z,22.60
2019-05-30T10:45:07.260Z,23.90
2019-05-30T10:46:13.218Z,24.80
2019-05-30T10:47:19.433Z,26.10
2019-05-30T10:48:24.801Z,27.40
2019-05-30T10:49:34.587Z,26.80
2019-05-30T10:50:38.202Z,26.10
2019-05-30T10:51:46.182Z,25.40
2019-05-30T10:52:51.571Z,25.20
2019-05-30T10:53:57.707Z,25.30
2019-05-30T10:55:03.291Z,25.60
2019-05-30T10:56:09.482Z,26.10
2019-05-30T10:57:15.249Z,26.10
2019-05-30T10:58:21.364Z,26.50
2019-05-30T10:59:26.594Z,26.90
2019-05-30T11:00:48.963Z,26.40
2019-05-30T11:01:54.578Z,26.20
2019-05-30T11:03:01.509Z,25.00
2019-05-30T11:04:06.760Z,23.90
2019-05-30T11:05:12.654Z,23.80
2019-05-30T11:06:30.818Z,23.60
2019-05-30T11:07:55.015Z,23.50
2019-05-30T11:08:54.746Z,23.60
2019-05-30T11:10:07.083Z,23.40
2019-05-30T11:11:12.222Z,23.60
2019-05-30T11:12:18.655Z,23.40
2019-05-30T11:13:24.821Z,23.00
2019-05-30T11:14:30.370Z,22.80
2019-05-30T11:15:36.059Z,22.60
2019-05-30T11:16:42.244Z,21.90
2019-05-30T11:17:48.530Z,21.60
2019-05-30T11:18:56.203Z,21.20
2019-05-30T11:20:02.061Z,21.00
2019-05-30T11:21:07.916Z,20.60
2019-05-30T11:22:13.081Z,20.70
2019-05-30T11:23:19.043Z,20.40
2019-05-30T11:24:24.275Z,19.90
2019-05-30T11:25:30.741Z,19.50
2019-05-30T11:26:36.580Z,19.30
2019-05-30T11:27:43.094Z,19.30
2019-05-30T11:28:48.919Z,19.50
2019-05-30T11:29:55.078Z,19.40
2019-05-30T11:31:04.188Z,19.30
2019-05-30T11:32:07.753Z,19.10
2019-05-30T11:33:12.849Z,19.10
2019-05-30T11:34:18.738Z,19.10
2019-05-30T11:35:24.373Z,19.00
2019-05-30T11:36:30.025Z,18.80
2019-05-30T11:37:38.919Z,18.50
2019-05-30T11:38:45.296Z,18.40
2019-05-30T11:39:51.157Z,18.40
2019-05-30T11:40:57.685Z,18.60
2019-05-30T11:42:03.063Z,18.60
2019-05-30T11:43:09.327Z,18.70
2019-05-30T11:44:15.217Z,18.70
2019-05-30T11:45:21.567Z,18.70
2019-05-30T11:46:27.075Z,18.60
2019-05-30T11:47:33.129Z,18.50
2019-05-30T11:48:38.855Z,18.50
2019-05-30T11:49:46.327Z,18.40
2019-05-30T11:50:52.150Z,18.40
2019-05-30T11:51:58.276Z,18.40
2019-05-30T11:53:04.077Z,18.40
2019-05-30T11:54:10.557Z,18.40
2019-05-30T11:55:16.260Z,18.40
2019-05-30T11:56:22.408Z,18.50
2019-05-30T11:57:27.439Z,18.60
2019-05-30T11:58:33.312Z,18.70
2019-05-30T11:59:38.397Z,18.70
2019-05-30T12:00:44.825Z,18.70
2019-05-30T12:01:50.263Z,18.80
2019-05-30T12:02:56.581Z,18.90
2019-05-30T12:04:02.284Z,19.00
2019-05-30T12:05:10.697Z,19.10
2019-05-30T12:06:15.782Z,19.10
2019-05-30T12:07:35.376Z,19.10
2019-05-30T12:08:29.437Z,19.10
2019-05-30T12:09:35.789Z,19.00
2019-05-30T12:10:41.487Z,19.00
2019-05-30T12:11:47.966Z,19.00
2019-05-30T12:12:53.662Z,19.20
2019-05-30T12:13:59.715Z,19.20
2019-05-30T12:15:05.871Z,19.30
2019-05-30T12:16:12.132Z,19.40
2019-05-30T12:17:17.733Z,19.50
2019-05-30T12:18:24.035Z,19.70
2019-05-30T12:19:29.849Z,19.70
2019-05-30T12:20:36.327Z,19.60
2019-05-30T12:21:42.304Z,19.60
2019-05-30T12:22:48.446Z,19.40
2019-05-30T12:23:54.501Z,19.30
2019-05-30T12:25:00.602Z,19.20
2019-05-30T12:26:06.458Z,19.40
2019-05-30T12:27:15.558Z,19.60
2019-05-30T12:28:21.127Z,19.70
2019-05-30T12:29:27.297Z,19.70
2019-05-30T12:30:32.810Z,19.70
2019-05-30T12:31:39.042Z,19.90
2019-05-30T12:32:44.521Z,19.90
2019-05-30T12:33:52.167Z,19.80
2019-05-30T12:34:58.389Z,19.50
2019-05-30T12:36:04.667Z,19.40
2019-05-30T12:37:10.526Z,19.10
2019-05-30T12:38:16.561Z,18.90
2019-05-30T12:39:22.119Z,18.90
2019-05-30T12:40:27.902Z,18.70
2019-05-30T12:41:32.922Z,18.80
2019-05-30T12:42:38.800Z,18.80
2019-05-30T12:43:43.821Z,19.00
2019-05-30T12:44:50.130Z,19.10
2019-05-30T12:45:56.888Z,19.20
2019-05-30T12:47:03.544Z,19.20
2019-05-30T12:48:09.333Z,19.30
2019-05-30T12:49:15.644Z,19.30
2019-05-30T12:50:22.762Z,19.30
2019-05-30T12:51:28.581Z,19.30
2019-05-30T12:52:33.625Z,19.20
2019-05-30T12:53:39.252Z,19.40
2019-05-30T12:54:44.163Z,19.40
2019-05-30T12:55:49.864Z,19.20
2019-05-30T12:56:56.570Z,19.00
2019-05-30T12:58:03.067Z,19.00
2019-05-30T12:59:09.039Z,19.00
2019-05-30T13:00:18.867Z,19.10
2019-05-30T13:01:23.110Z,19.30
2019-05-30T13:02:29.449Z,19.50
2019-05-30T13:03:35.292Z,19.60
2019-05-30T13:04:41.062Z,19.40
2019-05-30T13:05:46.543Z,19.60
2019-05-30T13:06:54.252Z,19.80
2019-05-30T13:08:14.330Z,19.90
2019-05-30T13:09:09.654Z,20.10
2019-05-30T13:10:15.914Z,20.00
2019-05-30T13:11:22.042Z,19.90
2019-05-30T13:12:27.874Z,19.90
2019-05-30T13:13:34.111Z,19.80
2019-05-30T13:14:40.083Z,19.70
2019-05-30T13:15:46.422Z,19.50
2019-05-30T13:16:51.436Z,19.50
2019-05-30T13:17:57.396Z,19.50
2019-05-30T13:19:04.409Z,19.50
2019-05-30T13:20:11.656Z,19.50
2019-05-30T13:21:17.386Z,19.70
2019-05-30T13:22:23.867Z,19.80
2019-05-30T13:23:29.127Z,19.70
2019-05-30T13:24:35.505Z,19.80
2019-05-30T13:25:41.125Z,19.90
2019-05-30T13:26:47.275Z,20.00
2019-05-30T13:27:52.901Z,20.10
2019-05-30T13:29:00.290Z,20.10
2019-05-30T13:30:06.434Z,20.20
2019-05-30T13:31:12.738Z,20.50
2019-05-30T13:32:17.922Z,20.90
2019-05-30T13:33:23.595Z,21.10
2019-05-30T13:34:29.346Z,21.30
2019-05-30T13:35:34.982Z,21.50
2019-05-30T13:36:44.349Z,21.60
2019-05-30T13:37:51.900Z,21.40
2019-05-30T13:38:59.015Z,21.40
2019-05-30T13:40:13.683Z,21.40
2019-05-30T13:41:12.020Z,21.40
2019-05-30T13:42:18.414Z,21.50
2019-05-30T13:43:27.287Z,21.60
2019-05-30T13:44:31.967Z,21.70
2019-05-30T13:45:37.531Z,21.90
2019-05-30T13:46:43.135Z,22.00
2019-05-30T13:47:48.230Z,22.10
2019-05-30T13:48:53.674Z,22.10
2019-05-30T13:49:58.575Z,22.30
2019-05-30T13:51:04.853Z,22.50
2019-05-30T13:52:10.374Z,22.60
2019-05-30T13:53:16.276Z,22.70
2019-05-30T13:54:21.131Z,23.20
2019-05-30T13:55:28.301Z,23.60
2019-05-30T13:56:33.004Z,23.70
2019-05-30T13:57:38.707Z,24.00
2019-05-30T13:58:43.534Z,24.40
2019-05-30T13:59:48.916Z,24.60
2019-05-30T14:00:53.715Z,24.70
2019-05-30T14:01:59.823Z,24.80
2019-05-30T14:03:06.223Z,25.30
2019-05-30T14:04:11.705Z,25.90
2019-05-30T14:05:17.712Z,25.50
2019-05-30T14:06:23.177Z,25.80
2019-05-30T14:07:28.520Z,25.90
2019-05-30T14:08:41.567Z,26.00
2019-05-30T14:09:40.361Z,26.80
2019-05-30T14:10:45.811Z,26.90
2019-05-30T14:11:50.624Z,27.20
2019-05-30T14:12:56.246Z,27.70
2019-05-30T14:14:01.128Z,27.70
2019-05-30T14:15:13.908Z,28.60
2019-05-30T14:16:18.242Z,28.70
2019-05-30T14:17:23.674Z,28.90
2019-05-30T14:18:28.553Z,29.00
2019-05-30T14:19:34.314Z,28.70
2019-05-30T14:20:39.083Z,29.20
2019-05-30T14:21:44.490Z,29.30
2019-05-30T14:22:49.321Z,28.70
2019-05-30T14:23:54.832Z,29.60
2019-05-30T14:25:01.164Z,30.20
2019-05-30T14:26:07.392Z,29.70
2019-05-30T14:27:12.435Z,30.30
2019-05-30T14:28:17.883Z,31.10
2019-05-30T14:29:22.897Z,32.30